sensor_id;sensor_type;location;lat;lon;timestamp;P1;durP1;ratioP1;P2;durP2;ratioP2
483;SDS011;228;48.922;12.198;2023-04-25T04:02:45;5.97;;;2.83;;
483;SDS011;228;48.922;12.198;2023-04-25T04:05:11;4.07;;;2.77;;
483;SDS011;228;48.922;12.198;2023-04-25T04:07:44;4.50;;;2.80;;
483;SDS011;228;48.922;12.198;2023-04-25T04:10:11;2.80;;;2.57;;
483;SDS011;228;48.922;12.198;2023-04-25T04:12:39;2.67;;;2.47;;
483;SDS011;228;48.922;12.198;2023-04-25T04:15:05;3.97;;;2.57;;
483;SDS011;228;48.922;12.198;2023-04-25T04:17:33;3.00;;;2.70;;
483;SDS011;228;48.922;12.198;2023-04-25T04:20:00;3.20;;;2.70;;
483;SDS011;228;48.922;12.198;2023-04-25T04:22:30;3.13;;;2.70;;
483;SDS011;228;48.922;12.198;2023-04-25T04:24:59;6.13;;;2.73;;
483;SDS011;228;48.922;12.198;2023-04-25T04:27:49;3.73;;;3.23;;
483;SDS011;228;48.922;12.198;2023-04-25T04:30:34;3.33;;;2.93;;
483;SDS011;228;48.922;12.198;2023-04-25T04:33:06;3.40;;;3.00;;
483;SDS011;228;48.922;12.198;2023-04-25T04:35:33;6.40;;;3.10;;
483;SDS011;228;48.922;12.198;2023-04-25T04:37:59;3.17;;;2.83;;
483;SDS011;228;48.922;12.198;2023-04-25T04:40:30;3.30;;;2.90;;
483;SDS011;228;48.922;12.198;2023-04-25T04:43:06;4.50;;;2.97;;
483;SDS011;228;48.922;12.198;2023-04-25T04:46:09;3.83;;;2.93;;
483;SDS011;228;48.922;12.198;2023-04-25T04:48:54;3.70;;;3.30;;
483;SDS011;228;48.922;12.198;2023-04-25T04:51:41;3.10;;;2.87;;
483;SDS011;228;48.922;12.198;2023-04-25T04:54:28;5.00;;;3.20;;
483;SDS011;228;48.922;12.198;2023-04-25T04:57:20;2.90;;;2.70;;
483;SDS011;228;48.922;12.198;2023-04-25T05:00:10;3.70;;;3.00;;
483;SDS011;228;48.922;12.198;2023-04-25T05:02:53;4.20;;;2.60;;
483;SDS011;228;48.922;12.198;2023-04-25T05:05:48;3.13;;;2.70;;
483;SDS011;228;48.922;12.198;2023-04-25T05:08:26;3.13;;;2.83;;
483;SDS011;228;48.922;12.198;2023-04-25T05:11:03;3.30;;;2.80;;
483;SDS011;228;48.922;12.198;2023-04-25T05:14:01;3.80;;;3.23;;
483;SDS011;228;48.922;12.198;2023-04-25T05:16:45;3.67;;;3.00;;
483;SDS011;228;48.922;12.198;2023-04-25T05:19:34;3.53;;;3.10;;
483;SDS011;228;48.922;12.198;2023-04-25T05:22:21;3.97;;;2.67;;
483;SDS011;228;48.922;12.198;2023-04-25T05:25:06;3.33;;;2.90;;
483;SDS011;228;48.922;12.198;2023-04-25T05:27:53;5.20;;;2.93;;
483;SDS011;228;48.922;12.198;2023-04-25T05:30:46;3.80;;;2.50;;
483;SDS011;228;48.922;12.198;2023-04-25T05:33:19;4.30;;;3.30;;
483;SDS011;228;48.922;12.198;2023-04-25T05:35:45;3.37;;;3.07;;
483;SDS011;228;48.922;12.198;2023-04-25T05:38:12;3.10;;;2.70;;
483;SDS011;228;48.922;12.198;2023-04-25T05:41:10;4.57;;;2.60;;
483;SDS011;228;48.922;12.198;2023-04-25T05:43:51;3.63;;;2.47;;
483;SDS011;228;48.922;12.198;2023-04-25T05:46:25;3.77;;;3.00;;
483;SDS011;228;48.922;12.198;2023-04-25T05:49:07;3.90;;;3.00;;
483;SDS011;228;48.922;12.198;2023-04-25T05:52:02;3.30;;;3.00;;
483;SDS011;228;48.922;12.198;2023-04-25T05:54:41;2.90;;;2.60;;
483;SDS011;228;48.922;12.198;2023-04-25T05:57:07;4.53;;;2.83;;
483;SDS011;228;48.922;12.198;2023-04-25T05:59:33;3.60;;;2.90;;
483;SDS011;228;48.922;12.198;2023-04-25T06:01:59;2.80;;;2.50;;
483;SDS011;228;48.922;12.198;2023-04-25T06:04:26;5.27;;;2.90;;
483;SDS011;228;48.922;12.198;2023-04-25T06:06:53;3.77;;;2.60;;
483;SDS011;228;48.922;12.198;2023-04-25T06:09:21;3.20;;;2.63;;
483;SDS011;228;48.922;12.198;2023-04-25T06:11:47;3.00;;;2.70;;
483;SDS011;228;48.922;12.198;2023-04-25T06:14:13;3.47;;;2.83;;
483;SDS011;228;48.922;12.198;2023-04-25T06:16:45;3.40;;;2.70;;
483;SDS011;228;48.922;12.198;2023-04-25T06:19:11;2.83;;;2.50;;
483;SDS011;228;48.922;12.198;2023-04-25T06:21:37;3.97;;;2.77;;
483;SDS011;228;48.922;12.198;2023-04-25T06:24:03;2.77;;;2.53;;
483;SDS011;228;48.922;12.198;2023-04-25T06:26:29;3.20;;;2.70;;
483;SDS011;228;48.922;12.198;2023-04-25T06:28:56;3.13;;;2.77;;
483;SDS011;228;48.922;12.198;2023-04-25T06:31:22;4.07;;;2.60;;
483;SDS011;228;48.922;12.198;2023-04-25T06:33:49;2.90;;;2.60;;
483;SDS011;228;48.922;12.198;2023-04-25T06:36:15;2.73;;;2.53;;
483;SDS011;228;48.922;12.198;2023-04-25T06:38:43;4.37;;;2.70;;
483;SDS011;228;48.922;12.198;2023-04-25T06:41:10;4.63;;;3.23;;
483;SDS011;228;48.922;12.198;2023-04-25T06:43:36;6.27;;;3.40;;
483;SDS011;228;48.922;12.198;2023-04-25T06:46:14;3.20;;;2.90;;
483;SDS011;228;48.922;12.198;2023-04-25T09:03:57;2.87;;;2.57;;
483;SDS011;228;48.922;12.198;2023-04-25T09:06:23;2.67;;;2.37;;
483;SDS011;228;48.922;12.198;2023-04-25T09:08:50;2.80;;;2.50;;
483;SDS011;228;48.922;12.198;2023-04-25T09:11:16;3.40;;;2.70;;
483;SDS011;228;48.922;12.198;2023-04-25T09:13:43;3.00;;;2.70;;
483;SDS011;228;48.922;12.198;2023-04-25T09:16:20;2.97;;;2.47;;
483;SDS011;228;48.922;12.198;2023-04-25T09:19:05;3.37;;;2.80;;
483;SDS011;228;48.922;12.198;2023-04-25T09:21:34;4.63;;;2.70;;
483;SDS011;228;48.922;12.198;2023-04-25T09:24:00;2.57;;;2.20;;
483;SDS011;228;48.922;12.198;2023-04-25T09:26:26;1.47;;;1.37;;
483;SDS011;228;48.922;12.198;2023-04-25T09:29:08;1.33;;;1.23;;
483;SDS011;228;48.922;12.198;2023-04-25T09:31:38;1.50;;;1.40;;
483;SDS011;228;48.922;12.198;2023-04-25T09:34:06;1.50;;;1.40;;
483;SDS011;228;48.922;12.198;2023-04-25T09:36:40;2.23;;;1.80;;
483;SDS011;228;48.922;12.198;2023-04-25T09:39:28;3.40;;;2.03;;
483;SDS011;228;48.922;12.198;2023-04-25T09:42:02;3.30;;;2.20;;
483;SDS011;228;48.922;12.198;2023-04-25T09:44:31;2.43;;;2.20;;
483;SDS011;228;48.922;12.198;2023-04-25T09:46:57;3.07;;;2.40;;
483;SDS011;228;48.922;12.198;2023-04-25T09:49:26;2.67;;;2.43;;
483;SDS011;228;48.922;12.198;2023-04-25T09:52:03;3.23;;;2.60;;
483;SDS011;228;48.922;12.198;2023-04-25T09:54:36;3.53;;;2.70;;
483;SDS011;228;48.922;12.198;2023-04-25T09:57:11;3.33;;;3.00;;
483;SDS011;228;48.922;12.198;2023-04-25T09:59:44;3.03;;;2.73;;
483;SDS011;228;48.922;12.198;2023-04-25T10:02:23;3.50;;;2.83;;
483;SDS011;228;48.922;12.198;2023-04-25T10:04:54;7.60;;;3.70;;
483;SDS011;228;48.922;12.198;2023-04-25T10:07:29;4.20;;;3.80;;
483;SDS011;228;48.922;12.198;2023-04-25T10:10:03;4.20;;;3.77;;
483;SDS011;228;48.922;12.198;2023-04-25T10:12:35;3.87;;;3.47;;
483;SDS011;228;48.922;12.198;2023-04-25T10:15:02;3.37;;;2.90;;
483;SDS011;228;48.922;12.198;2023-04-25T10:17:29;3.40;;;3.10;;
483;SDS011;228;48.922;12.198;2023-04-25T10:19:56;4.20;;;3.20;;
483;SDS011;228;48.922;12.198;2023-04-25T10:22:34;4.40;;;3.40;;
483;SDS011;228;48.922;12.198;2023-04-25T10:25:05;4.70;;;3.30;;
483;SDS011;228;48.922;12.198;2023-04-25T10:27:33;3.83;;;3.00;;
483;SDS011;228;48.922;12.198;2023-04-25T10:30:07;3.33;;;3.03;;
483;SDS011;228;48.922;12.198;2023-04-25T10:32:37;4.07;;;2.83;;
483;SDS011;228;48.922;12.198;2023-04-25T10:35:14;4.10;;;2.90;;
483;SDS011;228;48.922;12.198;2023-04-25T10:38:04;3.97;;;3.30;;
483;SDS011;228;48.922;12.198;2023-04-25T10:40:39;3.47;;;2.70;;
483;SDS011;228;48.922;12.198;2023-04-25T10:43:58;3.17;;;2.87;;
483;SDS011;228;48.922;12.198;2023-04-25T10:45:59;3.00;;;2.70;;
483;SDS011;228;48.922;12.198;2023-04-25T10:48:26;3.40;;;3.03;;
483;SDS011;228;48.922;12.198;2023-04-25T10:51:08;3.50;;;2.67;;
483;SDS011;228;48.922;12.198;2023-04-25T10:53:35;3.13;;;2.43;;
483;SDS011;228;48.922;12.198;2023-04-25T10:56:12;2.63;;;2.40;;
483;SDS011;228;48.922;12.198;2023-04-25T10:58:44;2.40;;;2.20;;
483;SDS011;228;48.922;12.198;2023-04-25T11:01:14;3.77;;;3.47;;
483;SDS011;228;48.922;12.198;2023-04-25T11:03:45;5.47;;;3.87;;
483;SDS011;228;48.922;12.198;2023-04-25T11:09:18;3.90;;;3.50;;
483;SDS011;228;48.922;12.198;2023-04-25T11:11:52;5.53;;;4.10;;
483;SDS011;228;48.922;12.198;2023-04-25T11:14:23;4.07;;;3.50;;
483;SDS011;228;48.922;12.198;2023-04-25T11:16:54;4.40;;;3.50;;
483;SDS011;228;48.922;12.198;2023-04-25T11:19:24;5.10;;;3.80;;
483;SDS011;228;48.922;12.198;2023-04-25T11:22:12;4.20;;;3.70;;
483;SDS011;228;48.922;12.198;2023-04-25T11:24:38;4.73;;;3.63;;
483;SDS011;228;48.922;12.198;2023-04-25T11:27:05;4.17;;;3.70;;
483;SDS011;228;48.922;12.198;2023-04-25T11:29:31;3.40;;;3.10;;
483;SDS011;228;48.922;12.198;2023-04-25T11:31:59;3.90;;;2.40;;
483;SDS011;228;48.922;12.198;2023-04-25T11:34:26;2.63;;;2.20;;
483;SDS011;228;48.922;12.198;2023-04-25T11:36:56;2.63;;;2.43;;
483;SDS011;228;48.922;12.198;2023-04-25T11:39:29;2.23;;;2.03;;
483;SDS011;228;48.922;12.198;2023-04-25T11:41:55;2.13;;;1.93;;
483;SDS011;228;48.922;12.198;2023-04-25T11:44:21;2.13;;;1.93;;
483;SDS011;228;48.922;12.198;2023-04-25T11:46:48;2.50;;;1.50;;
483;SDS011;228;48.922;12.198;2023-04-25T11:49:15;1.60;;;1.50;;
483;SDS011;228;48.922;12.198;2023-04-25T11:51:47;1.57;;;1.47;;
483;SDS011;228;48.922;12.198;2023-04-25T11:54:14;1.60;;;1.43;;
483;SDS011;228;48.922;12.198;2023-04-25T11:56:43;1.43;;;1.30;;
483;SDS011;228;48.922;12.198;2023-04-25T11:59:12;1.70;;;1.60;;
483;SDS011;228;48.922;12.198;2023-04-25T12:01:40;1.60;;;1.50;;
483;SDS011;228;48.922;12.198;2023-04-25T12:04:16;1.60;;;1.50;;
483;SDS011;228;48.922;12.198;2023-04-25T12:06:47;1.70;;;1.60;;
483;SDS011;228;48.922;12.198;2023-04-25T12:09:29;2.10;;;1.90;;
483;SDS011;228;48.922;12.198;2023-04-25T12:11:59;2.10;;;1.90;;
483;SDS011;228;48.922;12.198;2023-04-25T12:14:33;2.07;;;1.83;;
483;SDS011;228;48.922;12.198;2023-04-25T12:17:04;2.80;;;1.90;;
483;SDS011;228;48.922;12.198;2023-04-25T12:19:35;2.80;;;1.73;;
483;SDS011;228;48.922;12.198;2023-04-25T12:22:03;2.25;;;2.05;;
483;SDS011;228;48.922;12.198;2023-04-25T12:24:50;2.20;;;2.00;;
483;SDS011;228;48.922;12.198;2023-04-25T12:27:44;2.10;;;1.80;;
483;SDS011;228;48.922;12.198;2023-04-25T12:30:15;2.33;;;2.13;;
483;SDS011;228;48.922;12.198;2023-04-25T12:32:42;2.20;;;2.00;;
483;SDS011;228;48.922;12.198;2023-04-25T12:35:08;1.70;;;1.60;;
483;SDS011;228;48.922;12.198;2023-04-25T12:37:36;1.87;;;1.77;;
483;SDS011;228;48.922;12.198;2023-04-25T12:40:23;2.10;;;1.90;;
483;SDS011;228;48.922;12.198;2023-04-25T12:42:52;2.00;;;1.90;;
483;SDS011;228;48.922;12.198;2023-04-25T12:48:19;2.20;;;1.88;;
483;SDS011;228;48.922;12.198;2023-04-25T12:51:29;1.80;;;1.70;;
483;SDS011;228;48.922;12.198;2023-04-25T12:54:25;2.78;;;2.20;;
483;SDS011;228;48.922;12.198;2023-04-25T12:56:52;2.00;;;1.90;;
483;SDS011;228;48.922;12.198;2023-04-25T12:59:24;2.27;;;2.07;;
483;SDS011;228;48.922;12.198;2023-04-25T13:02:15;2.00;;;1.90;;
483;SDS011;228;48.922;12.198;2023-04-25T13:05:19;1.93;;;1.80;;
483;SDS011;228;48.922;12.198;2023-04-25T13:07:56;2.10;;;1.90;;
483;SDS011;228;48.922;12.198;2023-04-25T13:10:31;3.37;;;1.97;;
483;SDS011;228;48.922;12.198;2023-04-25T13:13:03;2.23;;;2.03;;
483;SDS011;228;48.922;12.198;2023-04-25T13:15:29;3.97;;;1.93;;
483;SDS011;228;48.922;12.198;2023-04-25T13:17:55;2.00;;;1.80;;
483;SDS011;228;48.922;12.198;2023-04-25T13:20:21;2.17;;;1.97;;
483;SDS011;228;48.922;12.198;2023-04-25T13:22:48;2.20;;;2.00;;
483;SDS011;228;48.922;12.198;2023-04-25T13:25:15;1.83;;;1.73;;
483;SDS011;228;48.922;12.198;2023-04-25T13:27:42;1.70;;;1.60;;
483;SDS011;228;48.922;12.198;2023-04-25T13:30:10;1.73;;;1.63;;
483;SDS011;228;48.922;12.198;2023-04-25T13:32:38;2.33;;;1.87;;
483;SDS011;228;48.922;12.198;2023-04-25T13:35:07;2.30;;;1.90;;
483;SDS011;228;48.922;12.198;2023-04-25T13:37:39;2.43;;;1.90;;
483;SDS011;228;48.922;12.198;2023-04-25T13:40:09;2.40;;;1.97;;
483;SDS011;228;48.922;12.198;2023-04-25T13:42:48;2.20;;;2.00;;
483;SDS011;228;48.922;12.198;2023-04-25T13:45:33;2.03;;;1.83;;
483;SDS011;228;48.922;12.198;2023-04-25T13:48:07;4.23;;;2.17;;
483;SDS011;228;48.922;12.198;2023-04-25T13:50:56;4.53;;;2.07;;
483;SDS011;228;48.922;12.198;2023-04-25T13:53:22;3.00;;;2.00;;
483;SDS011;228;48.922;12.198;2023-04-25T13:55:49;3.00;;;2.10;;
483;SDS011;228;48.922;12.198;2023-04-25T13:58:16;2.13;;;1.93;;
483;SDS011;228;48.922;12.198;2023-04-25T14:00:42;2.60;;;1.90;;
483;SDS011;228;48.922;12.198;2023-04-25T14:03:12;2.60;;;2.40;;
483;SDS011;228;48.922;12.198;2023-04-25T14:05:38;2.70;;;2.13;;
483;SDS011;228;48.922;12.198;2023-04-25T14:08:11;2.83;;;2.47;;
483;SDS011;228;48.922;12.198;2023-04-25T14:10:37;2.97;;;2.00;;
483;SDS011;228;48.922;12.198;2023-04-25T14:13:05;3.57;;;2.57;;
483;SDS011;228;48.922;12.198;2023-04-25T14:15:32;2.57;;;2.37;;
483;SDS011;228;48.922;12.198;2023-04-25T14:17:59;3.23;;;2.00;;
483;SDS011;228;48.922;12.198;2023-04-25T14:20:29;4.33;;;2.60;;
483;SDS011;228;48.922;12.198;2023-04-25T14:22:59;5.63;;;2.80;;
483;SDS011;228;48.922;12.198;2023-04-25T14:25:26;2.60;;;2.20;;
483;SDS011;228;48.922;12.198;2023-04-25T14:30:45;3.17;;;2.00;;
483;SDS011;228;48.922;12.198;2023-04-25T14:33:13;2.30;;;2.10;;
483;SDS011;228;48.922;12.198;2023-04-25T14:35:39;2.10;;;1.90;;
483;SDS011;228;48.922;12.198;2023-04-25T14:38:07;2.50;;;1.90;;
483;SDS011;228;48.922;12.198;2023-04-25T14:40:34;2.43;;;1.87;;
483;SDS011;228;48.922;12.198;2023-04-25T14:43:01;2.83;;;2.00;;
483;SDS011;228;48.922;12.198;2023-04-25T14:45:27;1.63;;;1.53;;
483;SDS011;228;48.922;12.198;2023-04-25T14:47:56;1.87;;;1.73;;
483;SDS011;228;48.922;12.198;2023-04-25T14:51:12;1.67;;;1.40;;
483;SDS011;228;48.922;12.198;2023-04-25T14:53:40;1.70;;;1.60;;
483;SDS011;228;48.922;12.198;2023-04-25T14:56:28;2.23;;;1.63;;
483;SDS011;228;48.922;12.198;2023-04-25T14:58:57;1.83;;;1.67;;
483;SDS011;228;48.922;12.198;2023-04-25T15:01:28;2.17;;;1.77;;
483;SDS011;228;48.922;12.198;2023-04-25T15:03:55;3.30;;;2.30;;
483;SDS011;228;48.922;12.198;2023-04-25T15:06:22;1.77;;;1.67;;
483;SDS011;228;48.922;12.198;2023-04-25T15:08:51;1.70;;;1.60;;
483;SDS011;228;48.922;12.198;2023-04-25T15:11:18;1.73;;;1.53;;
483;SDS011;228;48.922;12.198;2023-04-25T15:14:02;2.63;;;1.70;;
483;SDS011;228;48.922;12.198;2023-04-25T15:16:30;1.30;;;1.20;;
483;SDS011;228;48.922;12.198;2023-04-25T15:18:57;1.10;;;1.10;;
483;SDS011;228;48.922;12.198;2023-04-25T15:21:23;1.20;;;1.10;;
483;SDS011;228;48.922;12.198;2023-04-25T15:23:52;1.37;;;1.27;;
483;SDS011;228;48.922;12.198;2023-04-25T15:26:21;1.13;;;1.13;;
483;SDS011;228;48.922;12.198;2023-04-25T15:28:50;1.30;;;1.20;;
483;SDS011;228;48.922;12.198;2023-04-25T15:31:19;1.27;;;1.23;;
483;SDS011;228;48.922;12.198;2023-04-25T15:33:52;2.63;;;1.30;;
483;SDS011;228;48.922;12.198;2023-04-25T15:36:21;1.30;;;1.20;;
483;SDS011;228;48.922;12.198;2023-04-25T15:38:55;1.20;;;1.20;;
483;SDS011;228;48.922;12.198;2023-04-25T15:41:44;1.37;;;1.17;;
483;SDS011;228;48.922;12.198;2023-04-25T15:44:13;1.40;;;1.30;;
483;SDS011;228;48.922;12.198;2023-04-25T15:46:41;1.40;;;1.30;;
483;SDS011;228;48.922;12.198;2023-04-25T15:52:03;1.40;;;1.30;;
483;SDS011;228;48.922;12.198;2023-04-25T15:54:57;1.73;;;1.47;;
483;SDS011;228;48.922;12.198;2023-04-25T15:57:26;1.50;;;1.40;;
483;SDS011;228;48.922;12.198;2023-04-25T15:59:58;2.10;;;1.50;;
483;SDS011;228;48.922;12.198;2023-04-25T16:02:57;1.53;;;1.43;;
483;SDS011;228;48.922;12.198;2023-04-25T16:05:23;1.47;;;1.37;;
483;SDS011;228;48.922;12.198;2023-04-25T16:07:50;2.90;;;1.40;;
483;SDS011;228;48.922;12.198;2023-04-25T16:10:18;1.60;;;1.50;;
483;SDS011;228;48.922;12.198;2023-04-25T16:12:45;1.47;;;1.37;;
483;SDS011;228;48.922;12.198;2023-04-25T16:15:13;1.27;;;1.17;;
483;SDS011;228;48.922;12.198;2023-04-25T16:17:40;2.60;;;1.50;;
483;SDS011;228;48.922;12.198;2023-04-25T16:20:07;1.40;;;1.30;;
483;SDS011;228;48.922;12.198;2023-04-25T16:22:40;1.50;;;1.40;;
483;SDS011;228;48.922;12.198;2023-04-25T16:25:07;1.60;;;1.50;;
483;SDS011;228;48.922;12.198;2023-04-25T16:27:35;2.37;;;1.60;;
483;SDS011;228;48.922;12.198;2023-04-25T16:30:05;2.13;;;1.43;;
483;SDS011;228;48.922;12.198;2023-04-25T16:32:33;2.40;;;1.37;;
483;SDS011;228;48.922;12.198;2023-04-25T16:35:00;2.67;;;1.57;;
483;SDS011;228;48.922;12.198;2023-04-25T16:37:26;2.17;;;1.77;;
483;SDS011;228;48.922;12.198;2023-04-25T16:39:52;2.17;;;1.60;;
483;SDS011;228;48.922;12.198;2023-04-25T16:42:18;1.53;;;1.43;;
483;SDS011;228;48.922;12.198;2023-04-25T16:44:46;1.70;;;1.50;;
483;SDS011;228;48.922;12.198;2023-04-25T16:47:12;1.70;;;1.60;;
483;SDS011;228;48.922;12.198;2023-04-25T16:49:39;1.50;;;1.40;;
483;SDS011;228;48.922;12.198;2023-04-25T16:52:05;2.50;;;1.60;;
483;SDS011;228;48.922;12.198;2023-04-25T16:54:31;1.50;;;1.40;;
483;SDS011;228;48.922;12.198;2023-04-25T16:56:57;1.60;;;1.50;;
483;SDS011;228;48.922;12.198;2023-04-25T16:59:24;5.67;;;1.57;;
483;SDS011;228;48.922;12.198;2023-04-25T17:01:50;1.43;;;1.30;;
483;SDS011;228;48.922;12.198;2023-04-25T17:04:16;1.50;;;1.40;;
483;SDS011;228;48.922;12.198;2023-04-25T17:06:42;1.70;;;1.60;;
483;SDS011;228;48.922;12.198;2023-04-25T17:09:11;4.00;;;1.90;;
483;SDS011;228;48.922;12.198;2023-04-25T17:11:41;1.70;;;1.60;;
483;SDS011;228;48.922;12.198;2023-04-25T17:14:07;3.27;;;2.10;;
483;SDS011;228;48.922;12.198;2023-04-25T17:16:37;2.10;;;1.70;;
483;SDS011;228;48.922;12.198;2023-04-25T17:19:04;1.70;;;1.60;;
483;SDS011;228;48.922;12.198;2023-04-25T17:21:31;2.57;;;1.60;;
483;SDS011;228;48.922;12.198;2023-04-25T17:23:58;2.70;;;1.70;;
483;SDS011;228;48.922;12.198;2023-04-25T17:26:24;1.77;;;1.67;;
483;SDS011;228;48.922;12.198;2023-04-25T17:28:52;1.80;;;1.53;;
483;SDS011;228;48.922;12.198;2023-04-25T17:31:20;1.60;;;1.50;;
483;SDS011;228;48.922;12.198;2023-04-25T17:33:47;1.90;;;1.70;;
483;SDS011;228;48.922;12.198;2023-04-25T17:36:15;1.80;;;1.70;;
483;SDS011;228;48.922;12.198;2023-04-25T17:38:42;1.63;;;1.50;;
483;SDS011;228;48.922;12.198;2023-04-25T17:41:08;3.27;;;1.60;;
483;SDS011;228;48.922;12.198;2023-04-25T17:43:35;2.30;;;1.63;;
483;SDS011;228;48.922;12.198;2023-04-25T17:46:01;2.40;;;1.73;;
483;SDS011;228;48.922;12.198;2023-04-25T17:48:28;1.60;;;1.40;;
483;SDS011;228;48.922;12.198;2023-04-25T17:50:56;2.77;;;1.83;;
483;SDS011;228;48.922;12.198;2023-04-25T17:53:23;1.73;;;1.60;;
483;SDS011;228;48.922;12.198;2023-04-25T17:55:50;2.67;;;1.80;;
483;SDS011;228;48.922;12.198;2023-04-25T17:58:17;2.17;;;1.97;;
483;SDS011;228;48.922;12.198;2023-04-25T18:00:43;2.13;;;1.83;;
483;SDS011;228;48.922;12.198;2023-04-25T18:03:10;2.20;;;1.87;;
483;SDS011;228;48.922;12.198;2023-04-25T18:05:37;2.07;;;1.87;;
483;SDS011;228;48.922;12.198;2023-04-25T18:08:04;2.17;;;1.60;;
483;SDS011;228;48.922;12.198;2023-04-25T18:10:31;2.60;;;1.97;;
483;SDS011;228;48.922;12.198;2023-04-25T18:12:59;1.97;;;1.53;;
483;SDS011;228;48.922;12.198;2023-04-25T18:15:25;4.53;;;2.00;;
483;SDS011;228;48.922;12.198;2023-04-25T18:17:51;2.63;;;2.00;;
483;SDS011;228;48.922;12.198;2023-04-25T18:20:18;2.97;;;2.10;;
483;SDS011;228;48.922;12.198;2023-04-25T18:22:44;3.70;;;2.10;;
483;SDS011;228;48.922;12.198;2023-04-25T18:25:11;2.50;;;1.90;;
483;SDS011;228;48.922;12.198;2023-04-25T18:27:38;1.93;;;1.70;;
483;SDS011;228;48.922;12.198;2023-04-25T18:30:09;3.23;;;2.00;;
483;SDS011;228;48.922;12.198;2023-04-25T18:32:36;1.93;;;1.63;;
483;SDS011;228;48.922;12.198;2023-04-25T18:35:03;2.30;;;2.10;;
483;SDS011;228;48.922;12.198;2023-04-25T18:37:29;3.57;;;2.43;;
483;SDS011;228;48.922;12.198;2023-04-25T18:39:57;3.07;;;1.90;;
483;SDS011;228;48.922;12.198;2023-04-25T18:42:23;3.53;;;1.97;;
483;SDS011;228;48.922;12.198;2023-04-25T18:44:50;2.07;;;1.83;;
483;SDS011;228;48.922;12.198;2023-04-25T18:47:17;2.60;;;2.00;;
483;SDS011;228;48.922;12.198;2023-04-25T18:49:43;3.27;;;2.07;;
483;SDS011;228;48.922;12.198;2023-04-25T18:52:10;3.13;;;1.87;;
483;SDS011;228;48.922;12.198;2023-04-25T18:54:39;2.63;;;2.10;;
483;SDS011;228;48.922;12.198;2023-04-25T18:57:05;3.33;;;2.10;;
483;SDS011;228;48.922;12.198;2023-04-25T18:59:31;2.40;;;2.00;;
483;SDS011;228;48.922;12.198;2023-04-25T19:01:57;2.17;;;1.70;;
483;SDS011;228;48.922;12.198;2023-04-25T19:04:26;2.10;;;1.90;;
483;SDS011;228;48.922;12.198;2023-04-25T19:06:53;2.83;;;1.83;;
483;SDS011;228;48.922;12.198;2023-04-25T19:09:20;3.33;;;2.17;;
483;SDS011;228;48.922;12.198;2023-04-25T19:11:46;3.73;;;2.30;;
483;SDS011;228;48.922;12.198;2023-04-25T19:14:13;2.70;;;2.23;;
483;SDS011;228;48.922;12.198;2023-04-25T19:16:39;3.67;;;2.30;;
483;SDS011;228;48.922;12.198;2023-04-25T19:19:06;2.20;;;2.00;;
483;SDS011;228;48.922;12.198;2023-04-25T19:21:34;4.10;;;2.33;;
483;SDS011;228;48.922;12.198;2023-04-25T19:24:03;3.10;;;1.77;;
483;SDS011;228;48.922;12.198;2023-04-25T19:26:31;3.07;;;2.10;;
483;SDS011;228;48.922;12.198;2023-04-25T19:29:07;2.63;;;2.20;;
483;SDS011;228;48.922;12.198;2023-04-25T19:31:37;2.77;;;2.00;;
483;SDS011;228;48.922;12.198;2023-04-25T19:34:05;3.47;;;2.33;;
483;SDS011;228;48.922;12.198;2023-04-25T19:36:32;2.53;;;2.33;;
483;SDS011;228;48.922;12.198;2023-04-25T19:38:59;4.67;;;2.30;;
483;SDS011;228;48.922;12.198;2023-04-25T19:41:28;3.13;;;2.57;;
483;SDS011;228;48.922;12.198;2023-04-25T19:44:06;2.60;;;2.23;;
483;SDS011;228;48.922;12.198;2023-04-25T19:46:33;2.73;;;2.20;;
483;SDS011;228;48.922;12.198;2023-04-25T19:49:00;3.30;;;2.47;;
483;SDS011;228;48.922;12.198;2023-04-25T19:51:28;4.07;;;2.57;;
483;SDS011;228;48.922;12.198;2023-04-25T19:53:55;2.73;;;2.03;;
483;SDS011;228;48.922;12.198;2023-04-25T19:56:21;2.80;;;2.10;;
483;SDS011;228;48.922;12.198;2023-04-25T19:58:48;3.43;;;2.33;;
483;SDS011;228;48.922;12.198;2023-04-25T20:01:15;3.30;;;2.23;;
483;SDS011;228;48.922;12.198;2023-04-25T20:03:42;2.43;;;2.10;;
483;SDS011;228;48.922;12.198;2023-04-25T20:06:09;3.40;;;1.97;;
483;SDS011;228;48.922;12.198;2023-04-25T20:08:36;3.00;;;2.33;;
483;SDS011;228;48.922;12.198;2023-04-25T20:11:03;2.80;;;2.20;;
483;SDS011;228;48.922;12.198;2023-04-25T20:13:35;3.30;;;2.30;;
483;SDS011;228;48.922;12.198;2023-04-25T20:16:03;3.20;;;2.00;;
483;SDS011;228;48.922;12.198;2023-04-25T20:18:30;3.03;;;1.87;;
483;SDS011;228;48.922;12.198;2023-04-25T20:21:05;2.40;;;2.20;;
483;SDS011;228;48.922;12.198;2023-04-25T20:23:35;3.50;;;2.53;;
483;SDS011;228;48.922;12.198;2023-04-25T20:26:09;2.47;;;2.20;;
483;SDS011;228;48.922;12.198;2023-04-25T20:28:41;3.87;;;2.40;;
483;SDS011;228;48.922;12.198;2023-04-25T20:31:13;3.00;;;2.63;;
483;SDS011;228;48.922;12.198;2023-04-25T20:33:40;3.53;;;2.60;;
483;SDS011;228;48.922;12.198;2023-04-25T20:36:08;4.00;;;2.60;;
483;SDS011;228;48.922;12.198;2023-04-25T20:38:34;2.93;;;2.60;;
483;SDS011;228;48.922;12.198;2023-04-25T20:41:00;3.23;;;2.23;;
483;SDS011;228;48.922;12.198;2023-04-25T20:43:26;4.10;;;2.50;;
483;SDS011;228;48.922;12.198;2023-04-25T20:45:53;2.87;;;2.40;;
483;SDS011;228;48.922;12.198;2023-04-25T20:48:19;3.47;;;2.20;;
483;SDS011;228;48.922;12.198;2023-04-25T20:50:46;2.60;;;2.40;;
483;SDS011;228;48.922;12.198;2023-04-25T20:53:12;3.63;;;2.90;;
483;SDS011;228;48.922;12.198;2023-04-25T20:55:40;3.67;;;2.70;;
483;SDS011;228;48.922;12.198;2023-04-25T20:58:12;5.20;;;3.17;;
483;SDS011;228;48.922;12.198;2023-04-25T21:00:42;5.20;;;2.97;;
483;SDS011;228;48.922;12.198;2023-04-25T21:03:13;3.73;;;2.77;;
483;SDS011;228;48.922;12.198;2023-04-25T21:05:43;4.27;;;3.13;;
483;SDS011;228;48.922;12.198;2023-04-25T21:08:15;4.33;;;3.10;;
483;SDS011;228;48.922;12.198;2023-04-25T21:10:44;3.40;;;2.73;;
483;SDS011;228;48.922;12.198;2023-04-25T21:13:11;7.73;;;4.90;;
